createdAt,value
2023-03-12T00:01:03.621Z,94898.75
2023-03-12T00:03:33.620Z,94905.88
2023-03-12T00:06:10.589Z,94898.63
2023-03-12T00:08:44.967Z,94897.31
2023-03-12T00:11:17.158Z,94896.28
2023-03-12T00:13:47.957Z,94900.78
2023-03-12T00:16:18.821Z,94896.56
2023-03-12T00:18:51.626Z,94894.88
2023-03-12T00:21:22.822Z,94899.72
2023-03-12T00:23:56.743Z,94899.97
2023-03-12T00:26:26.619Z,94896.78
2023-03-12T00:28:56.722Z,94893.06
2023-03-12T00:31:30.145Z,94899.41
2023-03-12T00:34:03.427Z,94899.69
2023-03-12T00:36:35.928Z,94898.56
2023-03-12T00:39:08.428Z,94908.38
2023-03-12T00:41:38.622Z,94907.13
2023-03-12T00:44:08.869Z,94910.84
2023-03-12T00:46:39.250Z,94904.38
2023-03-12T00:49:09.226Z,94906.19
2023-03-12T00:51:39.104Z,94905.53
2023-03-12T00:54:11.694Z,94907.25
2023-03-12T00:56:42.145Z,94902.38
2023-03-12T00:59:12.060Z,94897.53
2023-03-12T01:01:42.272Z,94901.41
2023-03-12T01:04:14.682Z,94899.81
2023-03-12T01:06:44.597Z,94899.41
2023-03-12T01:09:17.428Z,94898.88
2023-03-12T01:11:47.314Z,94897.72
2023-03-12T01:14:17.592Z,94895.44
2023-03-12T01:16:47.528Z,94898.94
2023-03-12T01:19:17.520Z,94903.25
2023-03-12T01:21:47.373Z,94897.56
2023-03-12T01:24:20.162Z,94906.16
2023-03-12T01:26:50.064Z,94913.84
2023-03-12T01:29:19.856Z,94909.16
2023-03-12T01:31:49.746Z,94915.53
2023-03-12T01:34:19.534Z,94920.41
2023-03-12T01:36:50.328Z,94920.56
2023-03-12T01:39:23.212Z,94915.59
2023-03-12T01:41:53.647Z,94911.91
2023-03-12T01:44:23.974Z,94915.59
2023-03-12T01:46:53.873Z,94916.28
2023-03-12T01:49:32.727Z,94909.53
2023-03-12T01:52:10.052Z,94907.66
2023-03-12T01:54:56.311Z,94904.75
2023-03-12T01:57:32.578Z,94898.00
2023-03-12T02:00:14.372Z,94896.91
2023-03-12T02:02:48.320Z,94903.31
2023-03-12T02:05:32.093Z,94901.59
2023-03-12T02:08:02.280Z,94910.53
2023-03-12T02:10:34.774Z,94914.91
2023-03-12T02:13:05.212Z,94921.84
2023-03-12T02:15:39.071Z,94924.25
2023-03-12T02:18:17.554Z,94923.03
2023-03-12T02:20:56.482Z,94922.25
2023-03-12T02:23:36.105Z,94924.56
2023-03-12T02:26:10.852Z,94926.16
2023-03-12T02:28:46.725Z,94928.06
2023-03-12T02:31:22.208Z,94928.94
2023-03-12T02:33:53.058Z,94927.38
2023-03-12T02:36:25.534Z,94925.69
2023-03-12T02:38:57.654Z,94927.16
2023-03-12T02:41:34.249Z,94926.22
2023-03-12T02:44:08.613Z,94924.13
2023-03-12T02:46:45.126Z,94933.06
2023-03-12T02:49:16.556Z,94932.97
2023-03-12T02:51:48.800Z,94931.88
2023-03-12T02:54:20.965Z,94941.41
2023-03-12T02:56:55.723Z,94941.72
2023-03-12T02:59:28.065Z,94948.44
2023-03-12T03:02:03.458Z,94940.19
2023-03-12T03:04:34.976Z,94949.75
2023-03-12T03:07:05.193Z,94947.47
2023-03-12T03:09:35.363Z,94942.44
2023-03-12T03:12:08.694Z,94931.75
2023-03-12T03:14:40.582Z,94940.47
2023-03-12T03:17:10.755Z,94954.38
2023-03-12T03:19:40.780Z,94951.50
2023-03-12T03:22:10.833Z,94938.81
2023-03-12T03:24:40.721Z,94937.09
2023-03-12T03:27:14.525Z,94942.44
2023-03-12T03:29:44.948Z,94939.63
2023-03-12T03:32:15.223Z,94944.09
2023-03-12T03:34:47.747Z,94939.75
2023-03-12T03:37:22.919Z,94955.53
2023-03-12T03:39:53.572Z,94948.75
2023-03-12T03:42:27.308Z,94953.50
2023-03-12T03:45:00.101Z,94952.38
2023-03-12T03:47:30.469Z,94955.03
2023-03-12T03:50:02.865Z,94955.97
2023-03-12T03:52:34.001Z,94955.16
2023-03-12T03:55:05.484Z,94963.91
2023-03-12T03:57:39.137Z,94965.97
2023-03-12T04:00:13.262Z,94965.00
2023-03-12T04:02:48.441Z,94964.47
2023-03-12T04:05:21.016Z,94967.06
2023-03-12T04:07:55.196Z,94970.44
2023-03-12T04:10:28.351Z,94964.81
2023-03-12T04:13:00.932Z,94967.44
2023-03-12T04:15:30.873Z,94972.97
2023-03-12T04:18:02.082Z,94969.47
2023-03-12T04:20:32.954Z,94981.69
2023-03-12T04:23:02.975Z,94976.34
2023-03-12T04:25:33.044Z,94978.94
2023-03-12T04:28:06.904Z,94974.13
2023-03-12T04:30:38.348Z,94977.38
2023-03-12T04:33:11.886Z,94987.72
2023-03-12T04:35:41.974Z,94988.22
2023-03-12T04:38:12.869Z,94974.78
2023-03-12T04:40:42.846Z,94985.06
2023-03-12T04:43:16.072Z,94976.41
2023-03-12T04:45:46.093Z,94969.84
2023-03-12T04:48:15.934Z,94967.78
2023-03-12T04:50:49.353Z,94963.47
2023-03-12T04:53:20.231Z,94961.38
2023-03-12T04:55:51.949Z,94956.38
2023-03-12T04:58:25.234Z,94953.16
2023-03-12T05:00:55.754Z,94952.16
2023-03-12T05:03:25.904Z,94957.09
2023-03-12T05:05:55.949Z,94945.78
2023-03-12T05:08:25.814Z,94947.56
2023-03-12T05:10:55.697Z,94948.00
2023-03-12T05:13:30.735Z,94948.38
2023-03-12T05:16:01.048Z,94939.31
2023-03-12T05:18:32.469Z,94934.22
2023-03-12T05:21:04.159Z,94935.72
2023-03-12T05:23:39.381Z,94944.16
2023-03-12T05:26:09.952Z,94945.94
2023-03-12T05:28:43.128Z,94955.09
2023-03-12T05:31:14.704Z,94961.09
2023-03-12T05:33:45.389Z,94948.66
2023-03-12T05:36:17.608Z,94949.19
2023-03-12T05:38:49.674Z,94958.72
2023-03-12T05:41:24.764Z,94959.63
2023-03-12T05:44:00.578Z,94961.59
2023-03-12T05:46:32.281Z,94962.88
2023-03-12T05:49:03.218Z,94967.28
2023-03-12T05:51:35.250Z,94963.13
2023-03-12T05:54:06.115Z,94968.28
2023-03-12T05:56:36.063Z,94965.38
2023-03-12T05:59:10.695Z,94969.66
2023-03-12T06:01:43.566Z,94968.94
2023-03-12T06:04:14.802Z,94976.53
2023-03-12T06:06:45.578Z,94964.66
2023-03-12T06:09:16.049Z,94959.41
2023-03-12T06:11:46.023Z,94956.34
2023-03-12T06:14:18.873Z,94953.06
2023-03-12T06:16:49.403Z,94943.78
2023-03-12T06:19:19.355Z,94931.38
2023-03-12T06:21:51.756Z,94943.16
2023-03-12T06:24:24.307Z,94945.03
2023-03-12T06:27:01.432Z,94949.50
2023-03-12T06:29:34.748Z,94950.72
2023-03-12T06:32:05.126Z,94957.22
2023-03-12T06:34:35.299Z,94950.31
2023-03-12T06:37:05.355Z,94959.94
2023-03-12T06:39:35.748Z,94962.81
2023-03-12T06:42:05.645Z,94962.63
2023-03-12T06:44:38.585Z,94967.69
2023-03-12T06:47:09.416Z,94965.53
2023-03-12T06:49:39.499Z,94958.44
2023-03-12T06:52:09.449Z,94966.97
2023-03-12T06:54:39.387Z,94981.09
2023-03-12T06:57:09.930Z,94973.50
2023-03-12T06:59:42.430Z,94973.31
2023-03-12T07:02:13.617Z,94976.84
2023-03-12T07:04:43.720Z,94975.66
2023-03-12T07:07:14.580Z,94973.50
2023-03-12T07:09:44.381Z,94982.09
2023-03-12T07:12:14.334Z,94987.72
2023-03-12T07:14:47.206Z,94993.81
2023-03-12T07:17:17.366Z,94975.31
2023-03-12T07:19:49.735Z,94973.81
2023-03-12T07:22:19.829Z,94976.25
2023-03-12T07:24:51.772Z,94972.69
2023-03-12T07:27:21.988Z,94975.94
2023-03-12T07:29:54.718Z,94972.53
2023-03-12T07:32:24.626Z,94983.84
2023-03-12T07:34:54.507Z,94980.31
2023-03-12T07:37:24.854Z,94981.97
2023-03-12T07:39:55.004Z,94966.56
2023-03-12T07:42:25.718Z,94963.78
2023-03-12T07:44:58.478Z,94967.03
2023-03-12T07:47:28.813Z,94970.69
2023-03-12T07:49:58.842Z,94966.72
2023-03-12T07:52:29.638Z,94969.44
2023-03-12T07:54:59.760Z,94974.31
2023-03-12T07:57:29.832Z,94976.50
2023-03-12T08:00:02.416Z,94984.78
2023-03-12T08:02:42.730Z,94986.53
2023-03-12T08:05:13.474Z,94996.03
2023-03-12T08:07:43.343Z,94993.66
2023-03-12T08:10:14.907Z,94999.09
2023-03-12T08:12:45.296Z,94997.66
2023-03-12T08:15:18.297Z,94997.06
2023-03-12T08:17:49.104Z,94991.66
2023-03-12T08:20:19.254Z,94988.94
2023-03-12T08:22:49.109Z,94994.22
2023-03-12T08:25:21.165Z,95000.25
2023-03-12T08:27:51.879Z,94999.94
2023-03-12T08:30:24.762Z,95007.22
2023-03-12T08:32:54.710Z,95003.22
2023-03-12T08:35:24.647Z,95006.66
2023-03-12T08:37:57.059Z,95006.63
2023-03-12T08:40:28.590Z,95014.59
2023-03-12T08:42:58.489Z,95020.75
2023-03-12T08:45:31.466Z,95014.41
2023-03-12T08:48:01.520Z,95024.31
2023-03-12T08:50:32.302Z,95034.94
2023-03-12T08:53:04.901Z,95035.25
2023-03-12T08:55:35.456Z,95024.81
2023-03-12T08:58:05.442Z,95025.28
2023-03-12T09:00:37.958Z,95030.03
2023-03-12T09:03:08.047Z,95024.75
2023-03-12T09:05:37.954Z,95035.47
2023-03-12T09:08:08.482Z,95028.53
2023-03-12T09:10:39.102Z,95031.13
2023-03-12T09:13:11.213Z,95029.13
2023-03-12T09:15:43.930Z,95028.47
2023-03-12T09:18:13.817Z,95028.88
2023-03-12T09:20:45.493Z,95040.25
2023-03-12T09:23:15.533Z,95039.78
2023-03-12T09:25:48.727Z,95037.31
2023-03-12T09:28:18.710Z,95040.06
2023-03-12T09:30:51.655Z,95039.97
2023-03-12T09:33:22.145Z,95040.31
2023-03-12T09:36:00.356Z,95044.66
2023-03-12T09:38:32.003Z,95047.31
2023-03-12T09:41:02.299Z,95049.66
2023-03-12T09:43:40.541Z,95048.41
2023-03-12T09:46:22.910Z,95047.41
2023-03-12T09:48:59.416Z,95050.97
2023-03-12T09:51:38.575Z,95051.59
2023-03-12T09:54:19.677Z,95040.47
2023-03-12T09:56:50.324Z,95041.69
2023-03-12T09:59:20.235Z,95035.19
2023-03-12T10:02:00.136Z,95042.97
2023-03-12T10:04:58.625Z,95037.66
2023-03-12T10:07:38.725Z,95041.97
2023-03-12T10:10:26.835Z,95046.75
2023-03-12T10:13:19.802Z,95047.28
2023-03-12T10:16:05.537Z,95050.28
2023-03-12T10:18:59.378Z,95051.25
2023-03-12T10:21:41.169Z,95059.16
2023-03-12T10:24:28.594Z,95054.41
2023-03-12T10:27:02.031Z,95050.56
2023-03-12T10:29:35.445Z,95050.09
2023-03-12T10:32:17.208Z,95045.47
2023-03-12T10:34:53.781Z,95049.94
2023-03-12T10:37:29.378Z,95050.84
2023-03-12T10:40:00.582Z,95055.81
2023-03-12T10:42:32.852Z,95044.34
2023-03-12T10:45:17.913Z,95056.50
2023-03-12T10:47:57.309Z,95055.88
2023-03-12T10:50:32.602Z,95053.00
2023-03-12T10:53:29.590Z,95051.84
2023-03-12T10:56:05.613Z,95055.34
2023-03-12T10:58:41.151Z,95045.97
2023-03-12T11:01:22.250Z,95047.16
2023-03-12T11:03:52.972Z,95041.78
2023-03-12T11:06:29.144Z,95039.13
2023-03-12T11:09:16.719Z,95038.75
2023-03-12T11:11:48.932Z,95046.56
2023-03-12T11:14:21.823Z,95032.50
2023-03-12T11:16:53.558Z,95033.72
2023-03-12T11:19:32.637Z,95033.03
2023-03-12T11:22:11.640Z,95032.94
2023-03-12T11:24:59.755Z,95037.84
2023-03-12T11:27:44.647Z,95023.78
2023-03-12T11:30:17.973Z,95033.09
2023-03-12T11:32:51.905Z,95029.69
2023-03-12T11:35:36.848Z,95023.75
2023-03-12T11:38:20.326Z,95022.81
2023-03-12T11:41:07.702Z,95025.41
2023-03-12T11:43:52.296Z,95013.41
2023-03-12T11:46:39.126Z,95026.84
2023-03-12T11:49:25.504Z,95010.69
2023-03-12T11:52:03.634Z,95014.47
2023-03-12T11:54:53.628Z,95009.50
2023-03-12T11:57:41.218Z,95013.50
2023-03-12T12:00:17.602Z,95003.50
2023-03-12T12:03:31.388Z,95002.06
2023-03-12T12:06:10.466Z,95008.25
2023-03-12T12:09:03.380Z,95005.84
2023-03-12T12:11:48.172Z,95013.88
2023-03-12T12:14:34.926Z,95012.47
2023-03-12T12:17:21.254Z,95012.69
2023-03-12T12:20:09.327Z,95010.28
2023-03-12T12:22:55.185Z,95005.09
2023-03-12T12:25:42.803Z,94999.25
2023-03-12T12:28:35.082Z,95000.06
2023-03-12T12:31:22.642Z,95004.44
2023-03-12T12:34:16.059Z,95004.06
2023-03-12T12:36:53.798Z,95004.06
2023-03-12T12:39:34.592Z,94997.59
2023-03-12T12:42:10.792Z,94997.34
2023-03-12T12:44:50.587Z,94998.72
2023-03-12T12:47:28.952Z,94996.88
2023-03-12T12:50:03.385Z,95000.91
2023-03-12T12:52:33.921Z,94998.69
2023-03-12T12:55:16.252Z,94997.25
2023-03-12T12:57:52.122Z,94994.84
2023-03-12T13:00:44.395Z,94987.94
2023-03-12T13:03:19.462Z,94995.00
2023-03-12T13:06:08.028Z,94981.19
2023-03-12T13:08:55.434Z,94989.16
2023-03-12T13:11:32.587Z,94977.59
2023-03-12T13:14:38.520Z,94985.59
2023-03-12T13:17:24.602Z,94983.06
2023-03-12T13:20:01.987Z,94983.38
2023-03-12T13:22:50.150Z,94985.38
2023-03-12T13:25:48.041Z,94991.38
2023-03-12T13:28:42.037Z,94982.63
2023-03-12T13:31:38.657Z,94987.25
2023-03-12T13:34:46.098Z,94989.53
2023-03-12T13:37:57.668Z,94996.56
2023-03-12T13:41:04.216Z,94988.19
2023-03-12T13:44:04.774Z,94998.72
2023-03-12T13:47:00.235Z,95002.72
2023-03-12T13:49:43.517Z,95003.81
2023-03-12T13:52:25.024Z,94999.53
2023-03-12T13:55:04.133Z,95011.31
2023-03-12T13:57:43.805Z,95006.56
2023-03-12T14:00:21.299Z,95000.69
2023-03-12T14:02:57.714Z,94995.41
2023-03-12T14:05:31.927Z,94993.19
2023-03-12T14:08:26.429Z,94997.94
2023-03-12T14:11:15.972Z,94989.47
2023-03-12T14:14:24.662Z,94993.53
2023-03-12T14:16:58.934Z,94993.19
2023-03-12T14:19:32.197Z,94993.22
2023-03-12T14:22:10.523Z,94993.22
2023-03-12T14:24:50.693Z,95000.19
2023-03-12T14:27:26.947Z,94997.69
2023-03-12T14:30:18.446Z,95000.88
2023-03-12T14:33:01.324Z,94992.66
2023-03-12T14:35:41.846Z,94989.28
2023-03-12T14:38:22.706Z,94987.06
2023-03-12T14:41:03.398Z,94984.47
2023-03-12T14:43:37.885Z,94980.69
2023-03-12T14:46:20.590Z,94981.56
2023-03-12T14:48:52.728Z,94976.47
2023-03-12T14:51:28.520Z,94972.47
2023-03-12T14:54:06.616Z,94973.63
2023-03-12T14:56:38.168Z,94978.91
2023-03-12T14:59:26.020Z,94986.69
2023-03-12T15:02:02.688Z,94985.22
2023-03-12T15:04:37.899Z,94980.56
2023-03-12T15:07:14.745Z,94987.78
2023-03-12T15:09:52.820Z,94980.53
2023-03-12T15:12:25.525Z,94982.84
2023-03-12T15:15:04.507Z,94984.94
2023-03-12T15:17:37.298Z,94987.97
2023-03-12T15:20:10.575Z,95004.41
2023-03-12T15:22:42.974Z,95005.16
2023-03-12T15:25:25.099Z,94995.50
2023-03-12T15:28:07.940Z,94998.97
2023-03-12T15:30:40.951Z,94994.53
2023-03-12T15:33:14.967Z,94997.75
2023-03-12T15:36:02.162Z,94996.38
2023-03-12T15:38:38.390Z,94992.47
2023-03-12T15:41:12.393Z,95000.53
2023-03-12T15:43:49.925Z,95003.66
2023-03-12T15:46:21.107Z,95001.03
2023-03-12T15:48:54.797Z,95001.41
2023-03-12T15:51:41.088Z,95003.50
2023-03-12T15:54:28.337Z,95000.41
2023-03-12T15:57:21.586Z,94994.47
2023-03-12T16:00:12.645Z,94991.38
2023-03-12T16:02:51.019Z,94998.56
2023-03-12T16:05:22.671Z,94981.91
2023-03-12T16:07:53.504Z,94998.91
2023-03-12T16:10:27.830Z,94996.28
2023-03-12T16:13:07.581Z,94996.88
2023-03-12T16:15:40.938Z,95000.16
2023-03-12T16:18:15.659Z,94998.91
2023-03-12T16:20:47.529Z,94994.53
2023-03-12T16:23:19.143Z,94995.06
2023-03-12T16:25:55.817Z,95010.25
2023-03-12T16:28:29.336Z,95008.31
2023-03-12T16:30:59.470Z,95002.28
2023-03-12T16:33:29.628Z,95002.28
2023-03-12T16:36:00.177Z,94999.59
2023-03-12T16:38:30.834Z,94997.56
2023-03-12T16:41:00.996Z,95006.50
2023-03-12T16:43:39.825Z,95012.19
2023-03-12T16:46:13.691Z,95008.41
2023-03-12T16:48:44.023Z,95011.31
2023-03-12T16:51:19.492Z,95010.94
2023-03-12T16:54:01.978Z,95015.66
2023-03-12T16:56:40.138Z,95016.63
2023-03-12T16:59:25.379Z,95019.06
2023-03-12T17:01:56.585Z,95024.38
2023-03-12T17:04:26.691Z,95033.88
2023-03-12T17:06:56.620Z,95038.38
2023-03-12T17:09:26.452Z,95036.84
2023-03-12T17:11:56.992Z,95043.72
2023-03-12T17:14:34.077Z,95051.63
2023-03-12T17:17:04.042Z,95046.25
2023-03-12T17:19:34.299Z,95044.50
2023-03-12T17:22:04.945Z,95040.69
2023-03-12T17:24:34.787Z,95044.16
2023-03-12T17:27:07.230Z,95043.00
2023-03-12T17:29:39.968Z,95043.06
2023-03-12T17:32:10.428Z,95049.69
2023-03-12T17:34:41.372Z,95059.13
2023-03-12T17:37:11.906Z,95052.31
2023-03-12T17:39:42.073Z,95049.13
2023-03-12T17:42:12.221Z,95053.03
2023-03-12T17:44:45.072Z,95046.16
2023-03-12T17:47:15.329Z,95042.66
2023-03-12T17:49:45.773Z,95043.81
2023-03-12T17:52:15.887Z,95043.81
2023-03-12T17:54:46.522Z,95041.66
2023-03-12T17:57:16.725Z,95049.75
2023-03-12T17:59:50.053Z,95055.59
2023-03-12T18:02:20.010Z,95059.66
2023-03-12T18:04:50.018Z,95069.91
2023-03-12T18:07:20.095Z,95068.72
2023-03-12T18:09:50.304Z,95070.97
2023-03-12T18:12:20.324Z,95066.78
2023-03-12T18:14:54.010Z,95072.41
2023-03-12T18:17:23.933Z,95069.63
2023-03-12T18:19:54.635Z,95068.44
2023-03-12T18:22:25.096Z,95070.66
2023-03-12T18:24:55.570Z,95079.72
2023-03-12T18:27:25.595Z,95076.31
2023-03-12T18:29:58.460Z,95071.66
2023-03-12T18:32:28.681Z,95068.25
2023-03-12T18:34:59.141Z,95067.50
2023-03-12T18:37:29.312Z,95064.66
2023-03-12T18:39:59.643Z,95068.28
2023-03-12T18:42:29.498Z,95069.50
2023-03-12T18:45:02.563Z,95064.28
2023-03-12T18:47:34.900Z,95069.31
2023-03-12T18:50:05.182Z,95064.09
2023-03-12T18:52:35.098Z,95064.03
2023-03-12T18:55:05.545Z,95073.22
2023-03-12T18:57:35.526Z,95073.84
2023-03-12T19:00:13.261Z,95085.31
2023-03-12T19:02:43.253Z,95086.34
2023-03-12T19:05:14.183Z,95091.59
2023-03-12T19:07:44.108Z,95090.41
2023-03-12T19:10:15.711Z,95087.81
2023-03-12T19:12:52.661Z,95090.63
2023-03-12T19:15:27.460Z,95097.25
2023-03-12T19:17:58.437Z,95097.69
2023-03-12T19:20:28.397Z,95101.88
2023-03-12T19:22:58.864Z,95108.09
2023-03-12T19:25:28.953Z,95107.50
2023-03-12T19:27:58.905Z,95108.91
2023-03-12T19:30:33.279Z,95118.53
2023-03-12T19:33:03.917Z,95113.72
2023-03-12T19:35:34.315Z,95114.53
2023-03-12T19:38:04.240Z,95107.34
2023-03-12T19:40:35.122Z,95109.72
2023-03-12T19:43:05.599Z,95112.94
2023-03-12T19:45:39.138Z,95115.16
2023-03-12T19:48:09.861Z,95109.75
2023-03-12T19:50:39.912Z,95115.78
2023-03-12T19:53:10.322Z,95105.75
2023-03-12T19:55:41.676Z,95112.97
2023-03-12T19:58:11.639Z,95117.19
2023-03-12T20:00:44.333Z,95123.81
2023-03-12T20:03:14.488Z,95120.22
2023-03-12T20:05:46.405Z,95129.03
2023-03-12T20:08:16.323Z,95120.59
2023-03-12T20:10:46.727Z,95133.44
2023-03-12T20:13:17.975Z,95131.81
2023-03-12T20:15:50.673Z,95130.63
2023-03-12T20:18:21.021Z,95138.84
2023-03-12T20:20:51.072Z,95144.28
2023-03-12T20:23:21.558Z,95148.09
2023-03-12T20:25:52.571Z,95149.28
2023-03-12T20:28:22.585Z,95142.25
2023-03-12T20:30:55.740Z,95142.47
2023-03-12T20:33:25.776Z,95136.06
2023-03-12T20:35:56.205Z,95135.88
2023-03-12T20:38:26.921Z,95130.22
2023-03-12T20:40:56.793Z,95122.03
2023-03-12T20:43:26.609Z,95121.00
2023-03-12T20:45:59.219Z,95129.03
2023-03-12T20:48:29.488Z,95126.44
2023-03-12T20:51:00.037Z,95122.44
2023-03-12T20:53:30.114Z,95130.06
2023-03-12T20:56:00.588Z,95123.84
2023-03-12T20:58:30.968Z,95133.47
2023-03-12T21:01:07.527Z,95129.28
2023-03-12T21:03:37.474Z,95125.84
2023-03-12T21:06:08.595Z,95131.06
2023-03-12T21:08:38.718Z,95137.69
2023-03-12T21:11:09.459Z,95136.09
2023-03-12T21:13:39.534Z,95131.47
2023-03-12T21:16:12.581Z,95133.50
2023-03-12T21:18:43.359Z,95137.69
2023-03-12T21:21:13.579Z,95146.88
2023-03-12T21:23:43.549Z,95142.47
2023-03-12T21:26:14.762Z,95144.47
2023-03-12T21:28:44.622Z,95147.50
2023-03-12T21:31:20.191Z,95148.50
2023-03-12T21:33:50.191Z,95149.47
2023-03-12T21:36:20.260Z,95164.31
2023-03-12T21:38:51.751Z,95160.69
2023-03-12T21:41:22.651Z,95156.91
2023-03-12T21:43:52.585Z,95160.91
2023-03-12T21:46:28.038Z,95162.50
2023-03-12T21:48:57.994Z,95160.69
2023-03-12T21:51:28.648Z,95163.94
2023-03-12T21:54:00.224Z,95160.31
2023-03-12T21:56:30.761Z,95156.91
2023-03-12T21:59:01.168Z,95153.09
2023-03-12T22:01:34.090Z,95146.69
2023-03-12T22:04:07.137Z,95149.09
2023-03-12T22:06:37.025Z,95143.69
2023-03-12T22:09:07.737Z,95142.06
2023-03-12T22:11:37.754Z,95146.25
2023-03-12T22:14:07.615Z,95145.47
2023-03-12T22:16:40.377Z,95144.66
2023-03-12T22:19:10.648Z,95149.09
2023-03-12T22:21:42.466Z,95140.50
2023-03-12T22:24:13.597Z,95145.91
2023-03-12T22:26:43.674Z,95153.50
2023-03-12T22:29:14.109Z,95143.50
2023-03-12T22:31:46.842Z,95150.72
2023-03-12T22:34:16.712Z,95142.47
2023-03-12T22:36:46.722Z,95140.72
2023-03-12T22:39:16.869Z,95127.47
2023-03-12T22:41:46.847Z,95125.66
2023-03-12T22:44:16.769Z,95116.06
2023-03-12T22:46:49.226Z,95118.88
2023-03-12T22:49:19.153Z,95116.06
2023-03-12T22:51:49.442Z,95123.28
2023-03-12T22:54:19.281Z,95119.47
2023-03-12T22:56:49.121Z,95111.22
2023-03-12T22:59:19.408Z,95112.06
2023-03-12T23:01:52.086Z,95106.03
2023-03-12T23:04:22.039Z,95105.84
2023-03-12T23:06:55.318Z,95086.97
2023-03-12T23:09:29.557Z,95099.84
2023-03-12T23:11:59.431Z,95090.00
2023-03-12T23:14:29.277Z,95090.59
2023-03-12T23:17:01.812Z,95082.19
2023-03-12T23:19:35.279Z,95079.38
2023-03-12T23:22:05.189Z,95082.75
2023-03-12T23:24:35.677Z,95075.16
2023-03-12T23:27:05.559Z,95076.56
2023-03-12T23:29:36.923Z,95081.59
2023-03-12T23:32:10.005Z,95077.16
2023-03-12T23:34:40.187Z,95078.34
2023-03-12T23:37:10.232Z,95074.56
2023-03-12T23:39:53.409Z,95070.94
2023-03-12T23:42:24.436Z,95066.75
2023-03-12T23:44:54.346Z,95060.75
2023-03-12T23:47:27.350Z,95051.34
2023-03-12T23:49:57.683Z,95056.09
2023-03-12T23:52:28.869Z,95045.50
2023-03-12T23:54:59.496Z,95050.50
2023-03-12T23:57:29.951Z,95035.09
2023-03-12T23:59:59.813Z,95040.13
